Bosler, WY (82051)

2:14 AM MDT on March 26, 2017 (GMT -0600)
North of Old Laramie HS | | Change Station

Elev 7165 ft 41.33 °N, 105.58 °W | Updated 16 seconds ago

Ice Pellets
Ice Pellets
37.5 °F
Feels Like 38 °F
N
0.0
Wind Variable Wind from NNW

Today
High -- | Low -- °F
--% Chance of Precip.
Yesterday
High -- | Low -- °F
Precip. -- in
Pressure 29.88 in
Visibility 10.0 miles
Clouds Overcast 2900 ft
Windchill 38 °F
Dew Point 35 °F
Humidity 91%
Rainfall 0.00 in
Snow Depth Not available.
6:55 AM 7:21 PM
Waning Crescent, 4% visible
SPECI KLAR 260802Z AUTO 00000KT 10SM -RA OVC029 03/02 A2988 RMK AO2 P0000 T00280017
Pressure 29.88 in
Visibility 10.0 miles
Clouds Overcast 2900 ft
Windchill 38 °F
Dew Point 35 °F
Humidity 91%
Rainfall 0.00 in
Snow Depth Not available.
6:55 AM 7:21 PM
Waning Crescent, 4% visible
SPECI KLAR 260802Z AUTO 00000KT 10SM -RA OVC029 03/02 A2988 RMK AO2 P0000 T00280017

Get Severe Weather Alerts

Thanks for signing up!

Be on the lookout for a verification email in your inbox.

You'll start receiving the daily forecast at 8 AM.

×

10-Day Weather Forecast

Almanac

Astronomy

Mar. 26, 2017 Rise Set
Actual Time
Civil Twilight
Nautical Twilight
Astronomical Twilight
Moon
Length of Visible Light
Length of Day
Tomorrow will be .
, % of the Moon is Illuminated

Today's Extremes

State Highs State Lows

Community

WunderPhotos

Upload Photos

1,962,540 photos uploaded!

WunderBlog® & News

Nearby

Air Quality

  Air Quality AQ Index Pollutant
Not available.

Snow Depth

Station Depth Elevation

Earthquake Activity

City Distance Mag. Time & Date
Minimum magnitude displayed is 2.5.

Earthquake Activity

City Distance Mag. Time & Date
Minimum magnitude displayed is 2.5.

Coastal Water Temperatures

Place Temperature

Stations

Nearby Weather Stations

Station Location Temp. Windchill Dew Point Humidity Wind Precip. Elev Updated Type
                   

Watches & Warnings

There are currently no watches in effect.